Time;durP1;ratioP1;P1;durP2;ratioP2;P2;SDS_P1;SDS_P2;PMS_P1;PMS_P2;Temp;Humidity;BMP_temperature;BMP_pressure;BME280_temperature;BME280_humidity;BME280_pressure;Samples;Min_cycle;Max_cycle;Signal;HPM_P1;HPM_P2
2023/09/07 00:00:41;;;;;;;4.77;4.37;;;;;;;22.19;51.06;97754.97;5088414;28;20487;-71
2023/09/07 00:03:07;;;;;;;11.53;4.50;;;;;;;22.11;51.45;97760.56;5077200;28;20198;-70
2023/09/07 00:05:32;;;;;;;4.87;4.37;;;;;;;22.12;51.27;97759.53;5075090;28;20214;-70
2023/09/07 00:07:58;;;;;;;4.50;4.10;;;;;;;22.13;51.35;97758.50;5074998;28;20190;-72
2023/09/07 00:10:25;;;;;;;5.70;4.30;;;;;;;22.13;51.05;97755.84;5078714;28;20195;-70
2023/09/07 00:12:50;;;;;;;6.80;5.03;;;;;;;22.12;51.10;97759.53;5086960;28;20201;-71
2023/09/07 00:15:18;;;;;;;4.97;4.27;;;;;;;22.09;51.23;97754.59;5081074;28;20471;-71
2023/09/07 00:17:44;;;;;;;5.60;4.20;;;;;;;22.08;51.27;97755.63;5061712;28;20305;-71
2023/09/07 00:20:10;;;;;;;4.13;3.60;;;;;;;22.00;50.98;97761.22;5073870;28;20542;-71
2023/09/07 00:22:37;;;;;;;4.80;4.27;;;;;;;22.01;51.24;97762.88;5079210;28;20198;-72
2023/09/07 00:25:03;;;;;;;5.13;4.63;;;;;;;21.97;51.13;97756.31;5077616;28;20424;-71
2023/09/07 00:27:29;;;;;;;4.63;4.17;;;;;;;21.90;51.02;97759.00;5075432;28;20527;-72
2023/09/07 00:29:55;;;;;;;5.67;4.10;;;;;;;21.81;51.39;97757.63;5056807;28;20435;-73
2023/09/07 00:32:20;;;;;;;6.30;4.30;;;;;;;21.77;51.72;97760.69;5072710;28;20202;-72
2023/09/07 00:34:46;;;;;;;5.00;4.10;;;;;;;21.78;51.88;97753.53;5074244;28;20229;-70
2023/09/07 00:37:12;;;;;;;5.77;4.43;;;;;;;21.77;51.49;97754.56;5075997;28;20221;-71
2023/09/07 00:39:37;;;;;;;6.67;4.30;;;;;;;21.75;51.62;97754.75;5065185;28;20213;-72
2023/09/07 00:42:03;;;;;;;7.37;3.80;;;;;;;21.74;51.59;97758.44;5075303;28;20197;-71
2023/09/07 00:44:29;;;;;;;4.57;3.77;;;;;;;21.78;51.93;97753.53;5080432;28;20200;-71
2023/09/07 00:46:54;;;;;;;5.57;4.03;;;;;;;21.74;51.38;97755.78;5086804;28;20871;-71
2023/09/07 00:49:20;;;;;;;6.00;4.40;;;;;;;21.70;51.50;97756.41;5059081;28;20178;-71
2023/09/07 00:51:45;;;;;;;5.20;3.67;;;;;;;21.70;51.54;97757.25;5079681;28;20618;-71
2023/09/07 00:54:11;;;;;;;8.63;4.60;;;;;;;21.70;51.71;97753.75;5075898;28;20194;-71
2023/09/07 00:56:36;;;;;;;4.60;3.80;;;;;;;21.70;51.89;97751.09;5087181;28;20218;-71
2023/09/07 00:59:02;;;;;;;4.97;4.47;;;;;;;21.69;51.59;97754.78;5063655;28;20376;-72
2023/09/07 01:01:30;;;;;;;4.50;4.10;;;;;;;21.65;51.89;97758.91;5069686;28;20722;-71
2023/09/07 01:03:56;;;;;;;5.57;4.23;;;;;;;21.60;51.42;97757.69;5066220;28;20853;-71
2023/09/07 01:06:38;;;;;;;6.23;4.20;;;;;;;21.58;51.62;97756.22;5088598;28;20493;-71
2023/09/07 01:09:09;;;;;;;4.40;3.87;;;;;;;21.57;51.81;97755.41;5088606;28;20995;-74
2023/09/07 01:11:38;;;;;;;5.23;4.30;;;;;;;21.57;51.87;97747.41;5068096;28;20443;-71
2023/09/07 01:14:04;;;;;;;5.03;4.37;;;;;;;21.59;51.90;97748.03;5078803;28;22192;-70
2023/09/07 01:16:30;;;;;;;6.67;4.37;;;;;;;21.57;51.25;97750.06;5085480;28;20888;-72
2023/09/07 01:18:56;;;;;;;4.40;4.00;;;;;;;21.51;51.51;97748.25;5063518;28;20850;-72
2023/09/07 01:21:22;;;;;;;8.77;4.20;;;;;;;21.45;51.33;97749.06;5063365;28;20466;-72
2023/09/07 01:23:47;;;;;;;6.33;4.57;;;;;;;21.43;51.88;97748.47;5069552;28;20936;-72
2023/09/07 01:26:13;;;;;;;6.20;4.33;;;;;;;21.42;51.69;97744.19;5070751;28;20301;-72
2023/09/07 01:28:38;;;;;;;4.80;4.20;;;;;;;21.36;51.72;97742.34;5071627;28;20239;-74
2023/09/07 01:31:05;;;;;;;6.30;4.10;;;;;;;21.33;51.92;97746.25;5062504;28;20591;-72
2023/09/07 01:33:31;;;;;;;5.20;3.90;;;;;;;21.28;52.15;97746.03;5086471;28;20273;-73
2023/09/07 01:35:56;;;;;;;4.67;4.17;;;;;;;21.28;52.03;97736.22;5089055;28;20559;-72
2023/09/07 01:38:22;;;;;;;5.10;4.33;;;;;;;21.29;51.97;97737.03;5085419;28;20186;-72
2023/09/07 01:40:47;;;;;;;5.30;4.53;;;;;;;21.28;52.21;97744.22;5083975;28;20828;-71
2023/09/07 01:43:13;;;;;;;4.77;4.00;;;;;;;21.22;52.29;97737.03;5089483;28;20554;-71
2023/09/07 01:45:38;;;;;;;4.60;4.20;;;;;;;21.22;52.26;97736.22;5080965;28;20228;-73
2023/09/07 01:48:11;;;;;;;4.70;4.20;;;;;;;21.19;51.84;97740.09;5080068;28;20264;-71
2023/09/07 01:50:36;;;;;;;6.60;4.50;;;;;;;21.19;52.15;97742.78;5085773;28;20189;-71
2023/09/07 01:53:04;;;;;;;6.80;4.60;;;;;;;21.16;51.88;97743.22;5085127;28;20435;-73
2023/09/07 01:55:30;;;;;;;6.80;4.40;;;;;;;21.12;51.85;97745.44;5063254;28;20194;-71
2023/09/07 01:57:55;;;;;;;4.33;3.93;;;;;;;21.08;52.18;97749.56;5085308;28;20447;-72
2023/09/07 02:00:21;;;;;;;6.20;4.17;;;;;;;21.09;52.17;97747.72;5082250;28;20562;-73
2023/09/07 02:02:46;;;;;;;4.77;4.27;;;;;;;21.08;52.18;97749.56;5085816;28;20251;-72
2023/09/07 02:05:12;;;;;;;4.30;3.90;;;;;;;21.01;52.35;97749.56;5088349;28;20812;-73
2023/09/07 02:07:38;;;;;;;4.83;4.10;;;;;;;20.98;52.63;97755.31;5075425;28;20278;-71
2023/09/07 02:10:03;;;;;;;5.30;3.63;;;;;;;20.97;52.61;97756.31;5098953;28;20193;-72
2023/09/07 02:12:29;;;;;;;4.93;3.93;;;;;;;20.98;52.49;97752.63;5092675;28;20253;-72
2023/09/07 02:14:55;;;;;;;4.70;4.30;;;;;;;20.95;52.39;97746.91;5092993;28;20208;-72
2023/09/07 02:17:21;;;;;;;6.57;3.93;;;;;;;20.98;52.31;97751.84;5083762;28;20237;-73
2023/09/07 02:19:46;;;;;;;5.07;3.50;;;;;;;20.97;52.15;97748.34;5085739;28;20492;-72
2023/09/07 02:22:12;;;;;;;7.47;4.40;;;;;;;20.90;52.46;97747.53;5089119;28;20277;-73
2023/09/07 02:24:37;;;;;;;5.20;4.23;;;;;;;20.85;52.61;97750.81;5092193;28;20206;-73
2023/09/07 02:27:03;;;;;;;5.07;3.90;;;;;;;20.84;52.60;97751.00;5092383;28;20286;-71
2023/09/07 02:29:28;;;;;;;4.60;3.90;;;;;;;20.83;52.51;97741.38;5078016;28;20290;-71
2023/09/07 02:31:54;;;;;;;4.23;3.53;;;;;;;20.78;52.53;97743.84;5084146;28;20193;-70
2023/09/07 02:34:20;;;;;;;4.80;3.60;;;;;;;20.77;52.38;97750.19;5047135;28;20618;-74
2023/09/07 02:36:45;;;;;;;7.20;4.17;;;;;;;20.76;52.77;97743.22;5079437;28;20206;-70
2023/09/07 02:39:11;;;;;;;4.90;3.60;;;;;;;20.77;52.88;97742.22;5080351;28;20184;-72
2023/09/07 02:41:38;;;;;;;7.40;3.80;;;;;;;20.68;52.22;97746.88;5085912;28;20565;-71
2023/09/07 02:44:03;;;;;;;9.23;3.73;;;;;;;20.60;53.05;97737.25;5083859;28;20446;-71
2023/09/07 02:46:29;;;;;;;4.47;3.93;;;;;;;20.54;53.12;97740.72;5079210;28;20448;-72
2023/09/07 02:48:57;;;;;;;4.17;3.83;;;;;;;20.52;52.96;97742.78;5084426;28;20208;-71
2023/09/07 02:51:23;;;;;;;4.63;3.90;;;;;;;20.56;53.04;97738.66;5085117;28;20197;-72
2023/09/07 02:53:49;;;;;;;5.13;3.80;;;;;;;20.51;53.26;97735.81;5086367;28;20942;-72
2023/09/07 02:56:14;;;;;;;3.80;3.50;;;;;;;20.52;53.36;97735.59;5073913;28;20491;-70
2023/09/07 02:58:40;;;;;;;4.20;3.60;;;;;;;20.51;52.77;97733.16;5088532;28;20200;-71
2023/09/07 03:01:08;;;;;;;6.90;3.80;;;;;;;20.48;53.24;97738.88;5086311;28;20241;-72
2023/09/07 03:03:34;;;;;;;6.03;3.73;;;;;;;20.48;53.23;97733.53;5088752;28;20189;-71
2023/09/07 03:06:10;;;;;;;5.17;3.33;;;;;;;20.51;53.11;97738.47;5084245;28;21021;-71
2023/09/07 03:08:36;;;;;;;3.90;3.60;;;;;;;20.54;52.93;97732.75;5055835;28;20198;-71
2023/09/07 03:11:05;;;;;;;5.97;3.90;;;;;;;20.51;52.89;97738.47;5095274;28;20462;-73
2023/09/07 03:13:32;;;;;;;4.57;3.97;;;;;;;20.45;53.10;97728.63;5077255;28;20174;-72
2023/09/07 03:15:58;;;;;;;5.50;3.40;;;;;;;20.41;52.67;97739.66;5100171;28;20452;-72
2023/09/07 03:18:23;;;;;;;4.60;3.90;;;;;;;20.39;52.97;97731.09;5086030;28;20638;-71
2023/09/07 03:20:53;;;;;;;5.07;4.10;;;;;;;20.36;53.02;97736.81;5083829;28;20452;-70
2023/09/07 03:23:19;;;;;;;8.80;4.67;;;;;;;20.32;53.20;97732.09;5095942;28;20552;-71
2023/09/07 03:25:44;;;;;;;4.60;3.70;;;;;;;20.29;52.58;97732.50;5088432;28;20431;-73
2023/09/07 03:28:10;;;;;;;11.00;3.93;;;;;;;20.23;53.33;97734.13;5085214;28;20198;-71
2023/09/07 03:30:35;;;;;;;6.70;3.80;;;;;;;20.24;53.70;97733.09;5096769;28;20177;-71
2023/09/07 03:33:01;;;;;;;3.97;3.67;;;;;;;20.15;53.45;97729.00;5097923;28;20201;-73
2023/09/07 03:35:27;;;;;;;4.07;3.77;;;;;;;20.14;53.74;97728.16;5095641;28;20619;-72
2023/09/07 03:37:52;;;;;;;4.47;3.90;;;;;;;20.16;53.41;97725.31;5085622;28;20217;-71
2023/09/07 03:40:17;;;;;;;4.17;3.57;;;;;;;20.20;53.74;97727.38;5091854;28;20518;-73
2023/09/07 03:42:45;;;;;;;6.20;3.60;;;;;;;20.20;53.35;97727.38;5092275;28;20197;-72
2023/09/07 03:45:10;;;;;;;6.37;4.37;;;;;;;20.17;53.30;97733.09;5076665;28;20574;-72
2023/09/07 03:47:37;;;;;;;4.37;3.87;;;;;;;20.12;53.37;97724.06;5040506;28;20452;-72
2023/09/07 03:50:03;;;;;;;4.73;4.30;;;;;;;20.07;53.12;97736.13;5081000;28;20779;-70
2023/09/07 03:52:28;;;;;;;5.20;3.93;;;;;;;20.05;53.46;97724.06;5075182;28;20453;-71
2023/09/07 03:54:54;;;;;;;4.13;3.73;;;;;;;20.07;53.41;97733.47;5079322;28;20562;-69
2023/09/07 03:57:20;;;;;;;6.60;3.83;;;;;;;20.06;53.11;97731.81;5086200;28;20599;-70
2023/09/07 03:59:46;;;;;;;5.17;3.80;;;;;;;20.05;53.58;97724.06;5090800;28;20480;-71
2023/09/07 04:02:12;;;;;;;4.27;3.80;;;;;;;20.03;53.22;97729.59;5080925;28;20193;-71
2023/09/07 04:04:38;;;;;;;5.33;3.87;;;;;;;19.97;53.92;97721.59;5099172;28;20432;-72
2023/09/07 04:07:03;;;;;;;5.00;3.80;;;;;;;19.99;53.77;97725.69;5090849;28;20463;-71
2023/09/07 04:09:29;;;;;;;4.53;4.13;;;;;;;20.01;53.74;97723.63;5083205;28;20186;-71
2023/09/07 04:11:54;;;;;;;5.93;3.73;;;;;;;20.05;53.94;97726.72;5084617;28;20262;-71
2023/09/07 04:14:20;;;;;;;4.70;3.87;;;;;;;20.04;53.61;97728.53;5089256;28;20213;-71
2023/09/07 04:16:45;;;;;;;5.83;3.80;;;;;;;20.07;53.85;97730.81;5078221;28;20695;-70
2023/09/07 04:19:11;;;;;;;5.00;4.10;;;;;;;20.09;53.75;97731.44;5076116;28;20644;-71
2023/09/07 04:21:36;;;;;;;4.77;4.10;;;;;;;20.15;53.42;97731.66;5090196;28;20280;-70
2023/09/07 04:24:02;;;;;;;6.30;3.77;;;;;;;20.20;53.29;97723.88;5086794;28;20177;-71
2023/09/07 04:26:28;;;;;;;4.40;4.00;;;;;;;20.24;52.90;97730.44;5068468;28;20205;-70
2023/09/07 04:28:54;;;;;;;5.63;4.30;;;;;;;20.28;52.95;97723.69;5044480;28;20570;-71
2023/09/07 04:31:20;;;;;;;4.57;3.70;;;;;;;20.32;52.80;97722.25;5089211;28;20432;-71
2023/09/07 04:33:46;;;;;;;4.53;4.00;;;;;;;20.37;52.71;97718.97;5082400;28;20194;-69
2023/09/07 04:36:13;;;;;;;5.07;4.10;;;;;;;20.40;52.44;97723.91;5057423;28;20467;-71
2023/09/07 04:38:40;;;;;;;4.67;4.00;;;;;;;20.38;52.16;97718.81;5087098;28;20188;-69
2023/09/07 04:41:09;;;;;;;7.70;3.67;;;;;;;20.34;52.17;97722.88;5081106;28;20566;-71
2023/09/07 04:43:36;;;;;;;4.47;3.90;;;;;;;20.37;52.18;97722.47;5070834;28;21034;-70
2023/09/07 04:46:01;;;;;;;4.00;3.60;;;;;;;20.33;51.96;97713.25;5079178;28;20484;-70
2023/09/07 04:48:27;;;;;;;5.07;4.20;;;;;;;20.32;52.15;97718.78;5086342;28;20517;-70
2023/09/07 04:51:03;;;;;;;5.10;3.70;;;;;;;20.32;52.19;97722.25;5090097;28;20286;-69
2023/09/07 04:53:30;;;;;;;3.90;3.60;;;;;;;20.34;52.49;97727.41;5071835;28;20182;-70
2023/09/07 04:55:56;;;;;;;5.70;4.10;;;;;;;20.33;52.54;97723.91;5064606;28;20454;-72
2023/09/07 04:58:22;;;;;;;5.60;3.77;;;;;;;20.36;52.54;97731.47;5085081;28;20431;-71
2023/09/07 05:00:47;;;;;;;4.90;3.90;;;;;;;20.44;52.43;97727.81;5086896;28;21282;-70
2023/09/07 05:03:13;;;;;;;4.50;4.10;;;;;;;20.52;51.84;97726.81;5086605;28;20186;-71
2023/09/07 05:05:38;;;;;;;4.30;3.90;;;;;;;20.55;51.63;97729.03;5078180;28;20197;-71
2023/09/07 05:08:05;;;;;;;5.00;4.50;;;;;;;20.50;51.17;97736.81;5086285;28;20185;-70
2023/09/07 05:10:33;;;;;;;6.20;4.67;;;;;;;20.39;51.52;97733.75;5083403;28;20179;-71
2023/09/07 05:12:58;;;;;;;7.20;4.60;;;;;;;20.35;51.59;97739.69;5081442;28;20419;-70
2023/09/07 05:15:24;;;;;;;8.47;4.63;;;;;;;20.31;52.26;97743.75;5086053;28;21175;-70
2023/09/07 05:17:50;;;;;;;11.17;5.07;;;;;;;20.29;52.31;97741.28;5086477;28;20210;-72
2023/09/07 05:20:15;;;;;;;6.37;4.67;;;;;;;20.25;52.54;97748.06;5069486;28;20698;-71
2023/09/07 05:22:41;;;;;;;6.97;4.63;;;;;;;20.25;52.49;97748.06;5077340;28;20313;-69
2023/09/07 05:25:06;;;;;;;19.23;5.03;;;;;;;20.26;52.91;97747.84;5087412;28;20194;-71
2023/09/07 05:27:34;;;;;;;7.37;4.73;;;;;;;20.32;52.66;97751.53;5074877;28;20206;-69
2023/09/07 05:30:00;;;;;;;8.70;4.77;;;;;;;20.34;52.42;97754.81;5074397;28;20481;-70
2023/09/07 05:32:25;;;;;;;9.83;5.37;;;;;;;20.32;52.78;97759.50;5063292;28;20952;-69
2023/09/07 05:34:51;;;;;;;10.93;4.70;;;;;;;20.30;53.03;97764.22;5088923;28;20181;-70
2023/09/07 05:37:16;;;;;;;5.53;4.23;;;;;;;20.38;53.51;97763.22;5077974;28;20551;-70
2023/09/07 05:39:42;;;;;;;7.93;4.20;;;;;;;20.46;53.26;97763.03;5064735;28;20214;-70
2023/09/07 05:42:07;;;;;;;8.80;5.20;;;;;;;20.52;53.46;97769.41;5086752;28;20213;-70
2023/09/07 05:44:33;;;;;;;17.43;5.00;;;;;;;20.60;53.13;97763.06;5082496;28;20189;-70
2023/09/07 05:46:58;;;;;;;7.23;5.17;;;;;;;20.70;52.97;97764.28;5071158;28;20280;-68
2023/09/07 05:49:24;;;;;;;7.80;4.27;;;;;;;20.81;52.80;97759.41;5080866;28;20181;-70
2023/09/07 05:51:49;;;;;;;8.20;4.93;;;;;;;20.92;52.47;97752.66;5088932;28;20803;-70
2023/09/07 05:54:15;;;;;;;9.03;4.97;;;;;;;21.02;52.36;97761.03;5066544;28;20226;-70
2023/09/07 05:56:40;;;;;;;7.53;4.40;;;;;;;21.13;52.56;97754.28;5083033;28;20213;-69
2023/09/07 05:59:06;;;;;;;10.17;4.83;;;;;;;21.27;52.09;97761.22;5088316;28;20197;-70
2023/09/07 06:01:31;;;;;;;6.20;4.80;;;;;;;21.38;51.87;97761.63;5088844;28;20269;-70
2023/09/07 06:03:58;;;;;;;7.70;4.97;;;;;;;21.51;51.84;97761.59;5088701;28;20197;-70
2023/09/07 06:06:23;;;;;;;7.93;4.43;;;;;;;21.61;51.84;97762.00;5073638;28;20209;-70
2023/09/07 06:08:49;;;;;;;7.03;5.20;;;;;;;21.73;51.61;97766.66;5084528;28;20420;-69
2023/09/07 06:11:14;;;;;;;5.70;5.20;;;;;;;21.80;51.73;97762.13;5084854;28;20216;-69
2023/09/07 06:13:41;;;;;;;7.27;4.80;;;;;;;21.91;51.60;97760.66;5088877;28;20766;-72
2023/09/07 06:16:06;;;;;;;8.23;5.20;;;;;;;22.00;51.36;97761.22;5082645;28;20211;-70
2023/09/07 06:18:32;;;;;;;8.77;5.70;;;;;;;22.11;51.19;97763.22;5088557;28;20521;-72
2023/09/07 06:20:57;;;;;;;7.03;4.47;;;;;;;22.18;51.12;97763.19;5088582;28;20289;-70
2023/09/07 06:23:23;;;;;;;12.00;5.27;;;;;;;22.29;51.33;97759.84;5087365;28;20208;-71
2023/09/07 06:25:48;;;;;;;8.73;5.83;;;;;;;22.36;51.01;97759.81;5083338;28;20198;-71
2023/09/07 06:28:14;;;;;;;9.00;5.77;;;;;;;22.42;51.25;97764.31;5088858;28;20186;-70
2023/09/07 06:30:39;;;;;;;7.40;5.80;;;;;;;22.55;51.36;97764.25;5089812;28;20265;-71
2023/09/07 06:33:04;;;;;;;5.80;5.20;;;;;;;22.68;51.09;97760.66;5087414;28;20280;-70
2023/09/07 06:35:30;;;;;;;6.90;5.63;;;;;;;22.81;50.89;97756.22;5090123;28;20264;-70
2023/09/07 06:37:56;;;;;;;8.63;5.97;;;;;;;22.89;50.45;97760.50;5088662;28;20706;-69
2023/09/07 06:40:22;;;;;;;7.77;5.67;;;;;;;23.03;50.27;97759.34;5082155;28;20693;-73
2023/09/07 06:42:47;;;;;;;6.80;6.10;;;;;;;23.16;50.25;97763.75;5090168;28;20197;-71
2023/09/07 06:45:13;;;;;;;9.40;6.67;;;;;;;23.22;49.48;97752.22;5088647;28;20981;-70
2023/09/07 06:47:38;;;;;;;7.60;5.40;;;;;;;23.35;49.84;97758.47;5083815;28;20229;-72
2023/09/07 06:50:05;;;;;;;7.63;5.90;;;;;;;23.43;49.46;97759.00;5077052;28;20182;-71
2023/09/07 06:52:30;;;;;;;7.83;5.83;;;;;;;23.55;49.20;97760.94;5075214;28;20334;-70
2023/09/07 06:54:56;;;;;;;7.47;5.93;;;;;;;23.74;49.28;97770.56;5078553;28;21003;-70
2023/09/07 06:57:21;;;;;;;8.40;5.80;;;;;;;23.80;48.86;97768.06;5058521;28;20225;-72
2023/09/07 06:59:47;;;;;;;10.33;5.97;;;;;;;23.82;48.72;97763.31;5070945;28;20222;-71
2023/09/07 07:02:12;;;;;;;8.13;5.43;;;;;;;23.91;48.19;97772.66;5078680;28;20182;-71
2023/09/07 07:04:38;;;;;;;6.40;5.70;;;;;;;24.01;48.02;97775.63;5081156;28;20189;-72
2023/09/07 07:07:04;;;;;;;6.73;6.03;;;;;;;24.13;48.42;97772.19;5082648;28;20262;-70
2023/09/07 07:09:33;;;;;;;7.27;5.67;;;;;;;24.24;48.31;97771.44;5075596;28;20194;-70
2023/09/07 07:12:02;;;;;;;8.43;5.93;;;;;;;24.40;48.04;97783.34;5081449;28;20189;-73
2023/09/07 07:14:27;;;;;;;7.60;6.23;;;;;;;24.46;47.69;97781.63;5074174;28;20428;-71
2023/09/07 07:16:52;;;;;;;7.70;5.53;;;;;;;24.59;47.47;97781.44;5071938;28;20961;-71
2023/09/07 07:19:18;;;;;;;9.07;6.23;;;;;;;24.74;47.22;97778.38;5080394;28;20609;-71
2023/09/07 07:21:44;;;;;;;9.77;6.30;;;;;;;24.89;46.46;97782.47;5075283;28;20223;-71
2023/09/07 07:24:10;;;;;;;9.50;5.53;;;;;;;25.10;45.90;97779.22;5065919;28;20268;-72
2023/09/07 07:26:35;;;;;;;8.93;5.80;;;;;;;25.29;45.50;97784.47;5080476;28;20598;-71
2023/09/07 07:29:02;;;;;;;9.37;5.90;;;;;;;25.44;45.07;97782.16;5079928;28;20185;-70
2023/09/07 07:31:29;;;;;;;7.60;6.10;;;;;;;25.52;44.14;97778.31;5085025;28;20198;-71
2023/09/07 07:33:55;;;;;;;10.43;6.10;;;;;;;25.63;43.88;97779.34;5079846;28;20484;-71
2023/09/07 07:36:21;;;;;;;13.17;5.80;;;;;;;25.72;43.88;97782.47;5086379;28;20444;-71
2023/09/07 07:38:46;;;;;;;10.83;5.77;;;;;;;25.88;43.74;97781.72;5085329;28;20447;-71
2023/09/07 07:41:12;;;;;;;9.00;5.57;;;;;;;26.01;43.55;97783.34;5086818;28;20201;-70
2023/09/07 07:43:37;;;;;;;7.70;6.90;;;;;;;26.14;43.67;97779.59;5086485;28;20285;-71
2023/09/07 07:46:02;;;;;;;7.53;5.77;;;;;;;26.26;42.89;97784.09;5080520;28;20206;-71
2023/09/07 07:48:31;;;;;;;14.77;11.10;;;;;;;26.40;42.89;97785.44;5080938;28;20745;-70
2023/09/07 07:50:56;;;;;;;14.43;12.93;;;;;;;26.58;42.58;97783.59;5084198;28;20251;-70
2023/09/07 07:53:22;;;;;;;9.93;8.07;;;;;;;26.71;41.89;97788.66;5075257;28;20507;-70
2023/09/07 07:55:48;;;;;;;16.53;11.73;;;;;;;26.78;41.94;97778.59;5090863;28;20268;-70
2023/09/07 07:58:13;;;;;;;8.93;7.33;;;;;;;26.96;41.83;97788.28;5063145;28;20186;-70
2023/09/07 08:00:40;;;;;;;7.80;6.13;;;;;;;27.12;41.08;97777.78;5069555;28;20466;-71
2023/09/07 08:03:06;;;;;;;5.80;5.27;;;;;;;27.28;41.01;97770.75;5062501;28;20243;-70
2023/09/07 08:05:33;;;;;;;6.23;5.67;;;;;;;27.45;40.69;97773.44;5091034;28;20446;-71
2023/09/07 08:07:58;;;;;;;12.97;5.10;;;;;;;27.52;40.70;97768.69;5091020;28;20493;-70
2023/09/07 08:10:24;;;;;;;12.33;5.10;;;;;;;27.64;40.21;97776.63;5087932;28;20474;-70
2023/09/07 08:12:54;;;;;;;5.70;5.20;;;;;;;27.79;40.14;97770.63;5083384;28;20189;-71
2023/09/07 08:15:21;;;;;;;7.33;5.43;;;;;;;27.86;39.83;97765.03;5079371;28;20239;-71
2023/09/07 08:17:47;;;;;;;8.23;5.43;;;;;;;28.04;39.57;97756.66;5081398;28;20439;-71
2023/09/07 08:20:13;;;;;;;5.70;5.20;;;;;;;28.14;39.08;97757.84;5075360;28;20995;-71
2023/09/07 08:22:41;;;;;;;9.27;5.40;;;;;;;28.30;39.14;97764.22;5090895;28;20430;-70
2023/09/07 08:25:08;;;;;;;6.90;5.10;;;;;;;28.44;39.10;97760.03;5090606;28;20420;-70
2023/09/07 08:27:33;;;;;;;12.47;5.80;;;;;;;28.51;39.19;97754.44;5087726;28;20798;-71
2023/09/07 08:29:59;;;;;;;10.90;5.50;;;;;;;28.56;38.13;97750.97;5090626;28;20430;-70
2023/09/07 08:32:24;;;;;;;12.53;7.40;;;;;;;28.61;38.34;97754.53;5079156;28;20186;-72
2023/09/07 08:34:50;;;;;;;7.60;5.70;;;;;;;28.66;37.80;97759.97;5085779;28;20269;-71
2023/09/07 08:37:16;;;;;;;5.87;5.27;;;;;;;28.73;38.27;97759.00;5088120;28;20228;-70
2023/09/07 08:39:41;;;;;;;6.63;5.50;;;;;;;28.73;37.47;97772.47;5090514;28;20448;-71
2023/09/07 08:42:07;;;;;;;9.63;6.07;;;;;;;28.87;38.12;97765.56;5089476;28;20181;-71
2023/09/07 08:44:35;;;;;;;7.07;5.43;;;;;;;28.93;37.65;97769.94;5078969;28;20193;-71
2023/09/07 08:47:03;;;;;;;7.40;5.87;;;;;;;29.10;37.57;97766.28;5069823;28;20200;-70
2023/09/07 08:49:29;;;;;;;6.87;5.30;;;;;;;29.27;36.96;97764.22;5070770;28;20477;-71
2023/09/07 08:52:01;;;;;;;7.13;5.70;;;;;;;29.40;37.57;97760.28;5085277;28;20807;-71
2023/09/07 08:54:27;;;;;;;5.73;4.97;;;;;;;29.57;37.08;97760.09;5081364;28;20420;-70
2023/09/07 08:56:53;;;;;;;5.63;4.77;;;;;;;29.77;37.14;97763.94;5070997;28;20458;-72
2023/09/07 08:59:18;;;;;;;12.80;6.50;;;;;;;30.00;36.10;97761.91;5089396;28;20428;-71
2023/09/07 09:01:44;;;;;;;6.33;5.70;;;;;;;29.77;36.31;97763.94;5087626;28;20186;-71
2023/09/07 09:04:09;;;;;;;9.70;5.00;;;;;;;29.92;36.04;97765.09;5063890;28;20184;-72
2023/09/07 09:06:35;;;;;;;5.93;5.43;;;;;;;29.97;35.96;97773.25;5086265;28;20716;-73
2023/09/07 09:09:00;;;;;;;10.83;5.23;;;;;;;30.18;36.25;97763.31;5081900;28;20261;-72
2023/09/07 09:11:27;;;;;;;6.80;5.70;;;;;;;30.34;35.76;97773.06;5067331;28;20185;-73
2023/09/07 09:13:53;;;;;;;7.53;5.90;;;;;;;30.50;36.03;97770.38;5083720;28;20728;-72
2023/09/07 09:16:20;;;;;;;6.97;5.67;;;;;;;30.72;35.36;97772.06;5088231;28;20454;-72
2023/09/07 09:18:48;;;;;;;7.90;6.20;;;;;;;30.38;35.04;97762.53;5089006;28;20436;-72
2023/09/07 09:21:15;;;;;;;5.50;4.90;;;;;;;30.29;36.18;97761.44;5079471;28;20463;-73
2023/09/07 09:23:41;;;;;;;15.17;13.50;;;;;;;30.63;36.34;97752.84;5082583;28;20476;-72
2023/09/07 09:26:07;;;;;;;6.83;6.10;;;;;;;30.70;35.01;97758.81;5089244;28;20659;-73
2023/09/07 09:28:33;;;;;;;7.33;5.47;;;;;;;30.77;35.41;97758.53;5083300;28;20716;-73
2023/09/07 09:31:00;;;;;;;4.83;4.43;;;;;;;30.89;35.04;97755.53;5077810;28;20197;-73
2023/09/07 09:33:27;;;;;;;9.17;7.33;;;;;;;31.14;35.07;97756.63;5080501;28;20435;-73
2023/09/07 09:35:54;;;;;;;5.83;5.20;;;;;;;31.24;34.90;97746.59;5084991;28;20431;-73
2023/09/07 09:38:19;;;;;;;8.10;7.00;;;;;;;31.43;34.70;97747.91;5074767;28;20432;-74
2023/09/07 09:40:45;;;;;;;12.80;7.00;;;;;;;31.65;34.40;97751.06;5084308;28;20541;-73
2023/09/07 09:43:11;;;;;;;7.63;6.40;;;;;;;31.69;33.91;97754.88;5067247;28;20189;-71
2023/09/07 09:45:36;;;;;;;11.20;6.37;;;;;;;31.84;34.21;97742.34;5067729;28;20194;-72
2023/09/07 09:48:03;;;;;;;11.83;5.70;;;;;;;31.88;33.87;97753.44;5080947;28;20673;-73
2023/09/07 09:50:28;;;;;;;6.27;5.60;;;;;;;31.98;33.82;97746.09;5070214;28;20268;-73
2023/09/07 09:52:54;;;;;;;5.03;4.53;;;;;;;32.11;33.22;97744.66;5074452;28;20881;-73
2023/09/07 09:55:20;;;;;;;8.73;4.90;;;;;;;32.12;33.58;97737.34;5088413;28;20263;-72
2023/09/07 09:57:45;;;;;;;5.07;4.67;;;;;;;32.24;33.28;97735.09;5089246;28;20209;-73
2023/09/07 10:00:28;;;;;;;5.77;4.70;;;;;;;32.38;33.32;97748.03;5062158;28;20206;-71
2023/09/07 10:03:05;;;;;;;5.23;4.73;;;;;;;32.71;32.96;97742.91;5071759;28;20252;-72
2023/09/07 10:05:31;;;;;;;9.63;4.70;;;;;;;32.79;32.71;97739.56;5041874;28;21377;-72
2023/09/07 10:08:05;;;;;;;10.63;9.53;;;;;;;32.69;32.21;97736.94;5079538;28;20516;-73
2023/09/07 10:10:34;;;;;;;8.20;7.13;;;;;;;32.71;32.57;97737.47;5087082;28;20420;-73
2023/09/07 10:13:00;;;;;;;7.13;5.40;;;;;;;32.86;32.36;97740.09;5082089;28;20432;-72
2023/09/07 10:15:27;;;;;;;7.23;5.53;;;;;;;32.97;32.49;97735.34;5068685;28;20438;-73
2023/09/07 10:18:11;;;;;;;5.93;5.33;;;;;;;33.12;32.47;97745.28;5085775;28;20240;-72
2023/09/07 10:21:06;;;;;;;5.80;4.70;;;;;;;33.08;32.08;97742.31;5074132;28;20466;-72
2023/09/07 10:23:40;;;;;;;11.93;4.63;;;;;;;33.33;32.18;97742.31;5059830;28;20440;-73
2023/09/07 10:26:22;;;;;;;7.43;5.20;;;;;;;33.40;32.45;97737.38;5067188;28;20444;-72
2023/09/07 10:28:49;;;;;;;5.00;4.30;;;;;;;33.50;31.69;97726.41;5072482;28;20470;-72
2023/09/07 10:31:19;;;;;;;5.70;4.80;;;;;;;33.50;31.46;97726.41;5067574;28;20424;-73
2023/09/07 10:33:46;;;;;;;6.03;4.93;;;;;;;33.38;31.65;97723.31;5077868;28;20460;-73
2023/09/07 10:36:22;;;;;;;5.90;4.97;;;;;;;33.36;32.39;97720.06;5084434;28;20440;-74
2023/09/07 10:38:47;;;;;;;6.37;4.73;;;;;;;33.52;32.13;97712.53;5083041;28;20424;-73
2023/09/07 10:41:13;;;;;;;6.60;4.33;;;;;;;33.64;31.75;97712.13;5084586;28;20512;-73
2023/09/07 10:43:50;;;;;;;4.90;4.40;;;;;;;33.72;31.75;97713.38;5065498;28;20198;-73
2023/09/07 10:46:19;;;;;;;7.93;4.27;;;;;;;33.93;31.66;97712.03;5078558;28;20213;-74
2023/09/07 10:48:44;;;;;;;6.73;5.00;;;;;;;33.90;31.30;97717.25;5087915;28;20428;-72
2023/09/07 10:51:10;;;;;;;10.17;6.17;;;;;;;33.82;31.49;97710.53;5081322;28;20430;-71
2023/09/07 10:53:36;;;;;;;13.40;11.50;;;;;;;33.97;31.31;97704.09;5085916;28;20186;-73
2023/09/07 10:56:05;;;;;;;6.50;5.50;;;;;;;34.13;31.29;97699.25;5074527;28;20261;-73
2023/09/07 10:58:35;;;;;;;13.20;5.00;;;;;;;33.98;31.24;97708.44;5084136;28;20442;-72
2023/09/07 11:01:01;;;;;;;10.40;9.30;;;;;;;34.14;31.15;97700.84;5081530;28;20562;-72
2023/09/07 11:03:27;;;;;;;9.47;4.40;;;;;;;34.32;31.16;97701.94;5077110;28;20497;-73
2023/09/07 11:05:55;;;;;;;8.07;4.90;;;;;;;34.34;31.07;97699.72;5076492;28;20428;-73
2023/09/07 11:08:20;;;;;;;8.93;5.50;;;;;;;34.42;30.87;97696.34;5073430;28;20424;-72
2023/09/07 11:10:46;;;;;;;6.20;5.63;;;;;;;34.53;31.18;97699.72;5087745;28;20935;-74
2023/09/07 11:13:11;;;;;;;7.53;4.97;;;;;;;34.61;30.49;97693.59;5069953;28;20182;-72
2023/09/07 11:15:39;;;;;;;5.30;4.57;;;;;;;34.51;31.02;97699.22;5076994;28;20190;-73
2023/09/07 11:18:06;;;;;;;8.10;5.07;;;;;;;34.41;30.90;97699.38;5087704;28;20216;-73
2023/09/07 11:20:32;;;;;;;6.70;5.10;;;;;;;34.21;30.41;97692.31;5085326;28;21020;-73
2023/09/07 11:22:59;;;;;;;8.70;4.37;;;;;;;34.00;31.58;97690.72;5083316;28;20431;-74
2023/09/07 11:25:24;;;;;;;4.97;4.57;;;;;;;34.16;31.37;97687.78;5085340;28;20185;-73
2023/09/07 11:27:54;;;;;;;7.40;4.30;;;;;;;34.37;31.14;97688.28;5084287;28;20528;-72